createdAt,value
2022-10-01T00:12:46.585Z,806.4715
2022-10-01T00:27:48.951Z,624.23999
2022-10-01T00:42:51.568Z,508.89127
2022-10-01T00:57:53.848Z,331.50632
2022-10-01T01:12:56.091Z,227.78943
2022-10-01T01:27:58.612Z,66.88285
2022-10-01T01:43:00.999Z,12.60112
2022-10-01T01:58:03.228Z,0.96932
2022-10-01T02:13:05.631Z,0
2022-10-01T02:28:07.972Z,0
2022-10-01T02:43:10.335Z,0
2022-10-01T02:58:12.682Z,0
2022-10-01T03:13:15.184Z,0
2022-10-01T03:28:17.647Z,0
2022-10-01T03:43:19.960Z,0
2022-10-01T03:58:22.194Z,0
2022-10-01T04:13:24.564Z,0
2022-10-01T04:28:26.923Z,0
2022-10-01T04:43:29.633Z,0
2022-10-01T04:58:31.933Z,0
2022-10-01T05:13:34.180Z,0
2022-10-01T05:28:36.612Z,0
2022-10-01T05:43:39.057Z,0
2022-10-01T05:58:41.398Z,0
2022-10-01T06:13:43.649Z,0
2022-10-01T06:28:45.975Z,0
2022-10-01T06:43:48.261Z,0
2022-10-01T06:58:50.556Z,0
2022-10-01T07:13:54.727Z,0
2022-10-01T07:28:57.340Z,0
2022-10-01T07:43:59.628Z,0
2022-10-01T07:59:02.005Z,0
2022-10-01T08:14:04.350Z,0
2022-10-01T08:29:06.701Z,0
2022-10-01T08:44:09.035Z,0
2022-10-01T08:59:11.345Z,0
2022-10-01T09:14:13.791Z,0
2022-10-01T09:29:16.067Z,0
2022-10-01T09:44:19.020Z,0
2022-10-01T09:59:21.435Z,0
2022-10-01T10:14:23.708Z,0
2022-10-01T10:29:26.003Z,0
2022-10-01T10:44:28.376Z,0
2022-10-01T10:59:30.720Z,0
2022-10-01T11:14:33.007Z,0
2022-10-01T11:29:35.372Z,0
2022-10-01T11:44:37.660Z,0
2022-10-01T11:59:39.904Z,0
2022-10-01T12:14:42.256Z,0
2022-10-01T12:29:44.557Z,0
2022-10-01T12:44:46.832Z,0
2022-10-01T12:59:49.107Z,0
2022-10-01T13:14:51.423Z,0
2022-10-01T13:29:53.729Z,1.93863
2022-10-01T13:44:55.982Z,24.23292
2022-10-01T13:59:58.251Z,98.87031
2022-10-01T14:15:00.545Z,206.46446
2022-10-01T14:30:02.836Z,374.15625
2022-10-01T14:45:05.151Z,561.23438
2022-10-01T15:00:07.526Z,1369.64453
2022-10-01T15:15:09.819Z,2018.11743
2022-10-01T15:30:12.151Z,1866.90405
2022-10-01T15:45:14.415Z,3985.83032
2022-10-01T16:00:16.887Z,9721.27734
2022-10-01T16:15:19.415Z,10883.48828
2022-10-01T16:30:21.774Z,3069.82617
2022-10-01T16:45:24.097Z,7899.93115
2022-10-01T17:00:26.349Z,5500.87256
2022-10-01T17:15:28.743Z,5152.8877
2022-10-01T17:30:31.039Z,5023.96875
2022-10-01T17:45:33.458Z,5101.51367
2022-10-01T18:00:35.806Z,5117.02295
2022-10-01T18:15:38.083Z,5483.4248
2022-10-01T18:30:40.401Z,5256.60449
2022-10-01T18:45:42.788Z,5386.49316
2022-10-01T19:00:45.328Z,5293.43848
2022-10-01T19:15:47.662Z,5291.5
2022-10-01T19:30:49.959Z,5324.45654
2022-10-01T19:45:52.261Z,6051.44434
2022-10-01T20:00:54.620Z,5828.50146
2022-10-01T20:15:57.211Z,5566.78613
2022-10-01T20:30:59.543Z,4827.19727
2022-10-01T20:46:01.968Z,4702.15527
2022-10-01T21:01:04.482Z,4860.15381
2022-10-01T21:16:07.061Z,4971.62549
2022-10-01T21:31:09.408Z,4718.63379
2022-10-01T21:46:11.816Z,4432.68555
2022-10-01T22:01:14.184Z,3673.71045
2022-10-01T22:16:16.606Z,3029.11475
2022-10-01T22:31:18.994Z,2582.25977
2022-10-01T22:46:21.287Z,2684.03809
2022-10-01T23:01:23.747Z,2955.44678
2022-10-01T23:16:26.217Z,2995.18872
2022-10-01T23:31:28.750Z,2805.20264
2022-10-01T23:46:31.188Z,2320.54419
